Terminal Aerodrome Forecast
Issued by NWS Wilmington, OH

Current Version | Previous Version | Text Only | Print | Product List | Glossary Off
Versions: 1 2 3 4 5 6 7 8 9 10 11 12 13 14 15 16 17 18 19 20 21 22 23 24 25 26 27 28 29 30 31 32 33

000
FTUS41 KILN 281700
TAFDAY
TAF
KDAY 281739Z 2818/2918 16006KT P6SM SCT250
     FM282000 14010KT P6SM OVC200
     FM290900 17014KT P6SM VCSH BKN060 OVC120
     FM291500 20016G23KT 4SM -RA BR SCT010 OVC025=

USA.gov is the U.S. government's official web portal to all federal, state and local government web resources and services.